Decoded Metar for KMWK (MOUNT AIRY/SURRY in NC, USA) (IATA:MWK) | Meteo·Mobile Aviation Weather
aviador You're here:

KMWK Decoded Metar

MOUNT AIRY/SURRY in NC, USA
Report Time2019-06-18 15:20:00
UTC Time2019-06-18 15:34:32
Flight Rules mvfr MVFR
Wind270° at 05 kt
W.Decomp.*RWY 36: 0.6 kt HW 5 kt LCW
Visibility9999 m
Phenomena:N/A
Clouds:Broken 016 Hf
Expected CloudBase > 1,200 ft AGL from Temp-Dew spread
Ceiling1,600 ft
Temp26°C (ISA +13)
Dew Point23°C (84% RH)
QNH1018 hPa
Density Alt3,009 ft
Elevation1,247 ft
Report Wrong Elevation
Raw Report
METAR KMWK 181520Z AUTO 27005KT 10SM BKN016 26/23 A3007 RMK AO2 T02590226=

Extra information for KMWK:More info

Metar Taf Metar & Taf Last 4 Metars F.Rules Stats Wind Profile Meteogram Temp Stats Airport Information Weather charts Add Link Nearby VenuesMetar ALERT Operation Metar Decoded Social comments

AIRNAV info for KMWK